Terminal Aerodrome Forecast
Issued by NWS Sioux Falls, SD

Home | Current Version | Previous Version | Graphics & Text | Print | Product List | Glossary On
Versions: 1 2 3 4 5 6 7 8 9 10 11 12 13 14 15 16 17 18 19 20 21 22 23 24 25 26 27 28
000
FTUS43 KFSD 230521
TAFSUX
TAF
KSUX 230521Z 2306/2406 16012G18KT P6SM SCT250 WS018/20040KT
     FM230900 15010KT P6SM SCT250 WS015/21040KT
     FM231400 15010G18KT P6SM SCT200
     FM231600 16016G24KT P6SM SCT120 BKN250
     FM231900 16016G26KT P6SM VCTS BKN070CB
     FM232200 16013G19KT 4SM TSRA OVC035CB
     FM240100 14008KT 6SM RA VCTS BKN060CB
     FM240300 14006KT P6SM BKN050=

USA.gov is the U.S. government's official web portal to all federal, state and local government web resources and services.